Time;durP1;ratioP1;P1;durP2;ratioP2;P2;SDS_P1;SDS_P2;PMS_P1;PMS_P2;Temp;Humidity;BMP_temperature;BMP_pressure;BME280_temperature;BME280_humidity;BME280_pressure;Samples;Min_cycle;Max_cycle;Signal;HPM_P1;HPM_P2
2023/09/10 00:00:39;;;;;;;17.02;15.27;;;;;;;19.41;100.00;99856.25;5013982;28;20520;-93
2023/09/10 00:03:49;;;;;;;18.48;16.02;;;;;;;19.39;100.00;99863.47;4987723;28;20503;-94
2023/09/10 00:07:04;;;;;;;17.48;15.43;;;;;;;19.18;100.00;99840.44;4949056;29;20038;-93
2023/09/10 00:10:11;;;;;;;18.05;16.15;;;;;;;19.29;100.00;99868.63;4893491;29;20040;-94
2023/09/10 00:13:44;;;;;;;18.10;16.30;;;;;;;19.16;100.00;99849.44;4892012;29;20037;-93
2023/09/10 00:17:09;;;;;;;18.73;16.58;;;;;;;19.33;100.00;99866.56;4817954;29;20049;-93
2023/09/10 00:20:44;;;;;;;17.63;15.70;;;;;;;19.27;100.00;99860.00;4763819;30;20495;-93
2023/09/10 00:23:54;;;;;;;19.70;17.67;;;;;;;19.02;100.00;99852.34;4746057;30;20159;-93
2023/09/10 00:27:02;;;;;;;18.48;16.20;;;;;;;19.18;100.00;99863.38;4701374;30;20037;-94
2023/09/10 00:30:32;;;;;;;20.05;17.13;;;;;;;19.10;100.00;99853.41;4676552;30;20042;-93
2023/09/10 00:34:16;;;;;;;19.08;17.05;;;;;;;19.10;100.00;99869.25;4625375;31;20051;-93
2023/09/10 00:37:42;;;;;;;19.58;17.50;;;;;;;19.08;100.00;99870.31;4551270;31;20060;-93
2023/09/10 00:41:16;;;;;;;20.23;16.25;;;;;;;18.90;100.00;99846.22;4550450;31;20049;-93
2023/09/10 00:44:57;;;;;;;18.52;16.17;;;;;;;19.03;100.00;99867.19;4588737;31;20050;-93
2023/09/10 00:48:38;;;;;;;18.75;16.88;;;;;;;18.84;100.00;99844.91;4592009;31;20040;-93
2023/09/10 00:52:09;;;;;;;19.40;16.58;;;;;;;18.89;100.00;99865.66;4574193;31;20075;-94
2023/09/10 00:55:36;;;;;;;19.95;17.80;;;;;;;18.72;100.00;99856.41;4575000;31;20188;-94
2023/09/10 00:58:28;;;;;;;20.23;18.13;;;;;;;18.76;100.00;99870.19;4502845;31;20576;-92
2023/09/10 01:01:38;;;;;;;21.08;18.30;;;;;;;18.64;100.00;99870.13;4510364;31;20034;-93
2023/09/10 01:04:48;;;;;;;21.38;18.02;;;;;;;18.67;100.00;99871.72;4544796;31;20041;-93
2023/09/10 01:08:28;;;;;;;18.88;16.90;;;;;;;18.61;100.00;99870.38;4538475;31;20447;-93
2023/09/10 01:12:03;;;;;;;22.08;19.70;;;;;;;18.45;100.00;99854.84;4553917;31;20431;-94
2023/09/10 01:15:10;;;;;;;20.50;16.95;;;;;;;18.52;100.00;99864.97;4540995;31;20106;-93
2023/09/10 01:18:45;;;;;;;19.85;17.45;;;;;;;18.44;100.00;99869.00;4520895;31;20058;-94
2023/09/10 01:21:37;;;;;;;20.38;18.17;;;;;;;18.38;100.00;99869.50;4557068;31;20211;-93
2023/09/10 01:25:11;;;;;;;22.67;18.88;;;;;;;18.35;100.00;99874.16;4564733;31;20041;-93
2023/09/10 01:28:51;;;;;;;20.27;18.10;;;;;;;18.30;100.00;99857.84;4561849;31;20045;-93
2023/09/10 01:32:23;;;;;;;23.10;18.55;;;;;;;18.16;100.00;99853.59;4541850;31;20201;-93
2023/09/10 01:35:59;;;;;;;22.85;20.10;;;;;;;18.10;100.00;99843.50;4547739;31;20034;-93
2023/09/10 01:39:36;;;;;;;20.98;18.88;;;;;;;18.15;100.00;99860.66;4558811;31;20380;-93
2023/09/10 01:43:10;;;;;;;20.52;18.40;;;;;;;18.00;100.00;99838.09;4586960;31;20059;-93
2023/09/10 01:46:38;;;;;;;23.27;17.75;;;;;;;18.01;100.00;99852.94;4520271;31;20448;-93
2023/09/10 01:49:47;;;;;;;22.70;18.27;;;;;;;17.94;100.00;99852.53;4533156;31;20149;-93
2023/09/10 01:52:54;;;;;;;19.60;17.60;;;;;;;17.93;100.00;99853.50;4495900;31;20048;-93
2023/09/10 01:56:04;;;;;;;20.65;18.42;;;;;;;17.92;100.00;99856.25;4532465;31;20062;-92
2023/09/10 01:59:27;;;;;;;22.10;19.67;;;;;;;17.84;100.00;99853.34;4508029;31;20086;-94
2023/09/10 02:02:58;;;;;;;20.98;18.85;;;;;;;17.83;100.00;99852.50;4542691;31;20046;-93
2023/09/10 02:09:50;;;;;;;24.15;19.73;;;;;;;17.58;100.00;99827.09;4502485;31;20707;-93
2023/09/10 02:12:36;;;;;;;21.40;19.10;;;;;;;17.70;100.00;99849.91;4530701;31;20054;-91
2023/09/10 02:15:03;;;;;;;22.80;19.17;;;;;;;17.70;100.00;99849.06;4511874;31;20050;-92
2023/09/10 02:17:30;;;;;;;21.23;18.85;;;;;;;17.70;100.00;99851.69;4493831;31;20051;-91
2023/09/10 02:19:56;;;;;;;27.85;19.10;;;;;;;17.68;100.00;99849.16;4495324;31;20121;-92
2023/09/10 02:22:22;;;;;;;23.92;20.73;;;;;;;17.51;100.00;99823.22;4477583;31;20432;-91
2023/09/10 02:24:50;;;;;;;21.35;19.02;;;;;;;17.63;100.00;99847.81;4482803;31;20059;-92
2023/09/10 02:27:16;;;;;;;21.63;19.33;;;;;;;17.62;100.00;99843.50;4480204;31;20055;-92
2023/09/10 02:29:43;;;;;;;22.13;19.77;;;;;;;17.60;100.00;99848.88;4459909;31;20524;-92
2023/09/10 02:32:09;;;;;;;21.38;19.05;;;;;;;17.58;100.00;99853.44;4436743;32;20048;-91
2023/09/10 02:34:35;;;;;;;21.95;19.60;;;;;;;17.55;100.00;99842.28;4480822;31;20418;-92
2023/09/10 02:37:02;;;;;;;23.58;21.02;;;;;;;17.51;100.00;99848.72;4493450;31;20079;-91
2023/09/10 02:39:29;;;;;;;22.35;19.98;;;;;;;17.47;100.00;99842.81;4517682;31;20499;-92
2023/09/10 02:41:56;;;;;;;22.83;19.35;;;;;;;17.45;100.00;99842.94;4559903;31;20048;-92
2023/09/10 02:44:22;;;;;;;21.40;19.27;;;;;;;17.45;100.00;99842.09;4549788;31;20053;-92
2023/09/10 02:46:50;;;;;;;22.42;20.02;;;;;;;17.42;100.00;99842.31;4600767;31;20052;-91
2023/09/10 02:49:17;;;;;;;22.80;19.98;;;;;;;17.26;100.00;99818.88;4612207;30;20135;-92
2023/09/10 02:51:43;;;;;;;22.20;19.50;;;;;;;17.41;100.00;99844.09;4626653;30;20404;-91
2023/09/10 02:54:10;;;;;;;23.80;20.75;;;;;;;17.38;100.00;99851.38;4626515;30;20452;-92
2023/09/10 02:56:37;;;;;;;24.63;20.35;;;;;;;17.36;100.00;99850.63;4715277;30;20535;-92
2023/09/10 02:59:03;;;;;;;24.23;20.48;;;;;;;17.34;100.00;99849.91;4776692;29;20034;-92
2023/09/10 03:01:30;;;;;;;25.38;21.38;;;;;;;17.30;100.00;99849.28;4859175;29;20040;-92
2023/09/10 03:03:56;;;;;;;23.48;20.98;;;;;;;17.26;100.00;99850.47;4944962;28;20042;-92
2023/09/10 03:06:23;;;;;;;24.27;20.42;;;;;;;17.28;100.00;99842.47;4993839;28;20038;-92
2023/09/10 03:08:49;;;;;;;21.77;19.42;;;;;;;17.23;100.00;99826.16;4994135;28;20436;-91
2023/09/10 03:11:16;;;;;;;23.00;20.13;;;;;;;17.24;100.00;99831.31;4994033;28;20037;-92
2023/09/10 03:13:42;;;;;;;24.55;20.95;;;;;;;17.28;100.00;99830.16;4994228;28;20460;-93
2023/09/10 03:16:08;;;;;;;22.88;20.25;;;;;;;17.30;100.00;99833.50;4993307;28;20042;-92
2023/09/10 03:18:34;;;;;;;21.85;19.55;;;;;;;17.31;100.00;99831.69;4993839;28;20268;-92
2023/09/10 03:21:04;;;;;;;23.73;21.17;;;;;;;17.28;100.00;99830.16;4994026;28;20463;-92
2023/09/10 03:23:30;;;;;;;23.45;20.98;;;;;;;17.23;100.00;99826.16;4993819;28;20113;-91
2023/09/10 03:25:56;;;;;;;23.00;20.35;;;;;;;17.14;100.00;99817.94;4993948;28;20041;-93
2023/09/10 03:28:23;;;;;;;25.38;21.20;;;;;;;17.21;100.00;99826.25;5019392;28;20043;-92
2023/09/10 03:30:49;;;;;;;26.27;21.05;;;;;;;17.20;100.00;99828.06;5070867;28;20446;-92
2023/09/10 03:33:16;;;;;;;25.27;22.52;;;;;;;17.17;100.00;99822.16;5070626;28;20031;-91
2023/09/10 03:35:42;;;;;;;24.70;20.05;;;;;;;17.14;100.00;99831.09;5070717;28;20121;-91
2023/09/10 03:38:08;;;;;;;27.00;22.05;;;;;;;17.10;100.00;99828.81;5070650;28;20059;-92
2023/09/10 03:40:35;;;;;;;24.40;21.85;;;;;;;17.10;100.00;99826.16;5070730;28;20089;-92
2023/09/10 03:43:01;;;;;;;25.00;22.45;;;;;;;17.06;100.00;99815.00;5070630;28;20085;-91
2023/09/10 03:45:27;;;;;;;23.90;21.05;;;;;;;17.05;100.00;99823.03;5070523;28;20464;-91
2023/09/10 03:47:53;;;;;;;27.52;21.63;;;;;;;17.02;100.00;99816.19;5070513;28;20021;-92
2023/09/10 03:50:19;;;;;;;27.15;22.23;;;;;;;16.96;100.00;99816.63;5070490;28;20028;-92
2023/09/10 03:52:46;;;;;;;26.10;22.85;;;;;;;16.94;100.00;99811.50;5070570;28;20095;-91
2023/09/10 03:55:12;;;;;;;23.42;21.08;;;;;;;16.98;100.00;99811.25;5048912;28;20498;-91
2023/09/10 03:57:38;;;;;;;23.58;21.13;;;;;;;16.94;100.00;99808.84;5049389;28;20090;-92
2023/09/10 04:00:05;;;;;;;24.25;20.85;;;;;;;16.94;100.00;99808.84;5049282;28;20041;-91
2023/09/10 04:02:31;;;;;;;22.58;20.30;;;;;;;16.89;100.00;99810.09;5049453;28;20043;-91
2023/09/10 04:04:58;;;;;;;22.83;19.83;;;;;;;16.88;100.00;99805.81;5049598;28;20388;-92
2023/09/10 04:07:24;;;;;;;22.02;19.65;;;;;;;16.68;100.00;99770.34;5048952;28;20560;-92
2023/09/10 04:09:50;;;;;;;23.48;20.58;;;;;;;16.83;100.00;99800.03;5049312;28;20490;-92
2023/09/10 04:12:16;;;;;;;21.98;19.38;;;;;;;16.85;100.00;99806.84;5049007;28;20530;-92
2023/09/10 04:14:42;;;;;;;22.00;19.70;;;;;;;16.84;100.00;99807.81;5049492;28;20040;-90
2023/09/10 04:17:08;;;;;;;23.27;19.67;;;;;;;16.84;100.00;99804.34;5048961;28;20037;-91
2023/09/10 04:19:34;;;;;;;23.38;20.83;;;;;;;16.84;100.00;99805.16;5032444;28;20444;-92
2023/09/10 04:22:00;;;;;;;22.30;19.90;;;;;;;16.85;100.00;99800.75;5032582;28;20454;-91
2023/09/10 04:24:27;;;;;;;21.60;19.48;;;;;;;16.84;100.00;99810.44;5032477;28;20025;-92
2023/09/10 04:26:53;;;;;;;21.50;19.27;;;;;;;16.83;100.00;99807.91;5032606;28;20498;-92
2023/09/10 04:29:20;;;;;;;21.20;18.00;;;;;;;16.82;100.00;99807.09;5032196;28;20048;-91
2023/09/10 04:31:46;;;;;;;23.90;19.85;;;;;;;16.84;100.00;99812.22;5032734;28;20463;-91
2023/09/10 04:34:12;;;;;;;25.13;21.35;;;;;;;16.83;100.00;99814.03;5049992;28;20049;-91
2023/09/10 04:36:38;;;;;;;22.48;20.23;;;;;;;16.80;100.00;99814.22;5050051;28;20102;-92
2023/09/10 04:39:10;;;;;;;21.05;18.77;;;;;;;16.79;100.00;99814.34;5050254;28;20400;-91
2023/09/10 04:41:37;;;;;;;24.60;20.65;;;;;;;16.78;100.00;99817.94;5050400;28;20502;-91
2023/09/10 04:44:03;;;;;;;22.40;19.98;;;;;;;16.81;100.00;99820.31;5054047;28;20380;-91
2023/09/10 04:46:30;;;;;;;23.15;20.77;;;;;;;16.82;100.00;99822.88;5053645;28;20044;-92
2023/09/10 04:48:59;;;;;;;22.75;20.40;;;;;;;16.84;100.00;99828.00;5053702;28;20025;-91
2023/09/10 04:51:26;;;;;;;24.92;20.42;;;;;;;16.86;100.00;99826.13;5053974;28;20032;-92
2023/09/10 04:53:52;;;;;;;22.08;19.75;;;;;;;16.85;100.00;99819.16;5054018;28;20028;-91
2023/09/10 04:56:18;;;;;;;22.33;20.02;;;;;;;16.94;100.00;99840.44;5053225;28;20107;-91
2023/09/10 04:58:44;;;;;;;28.70;25.30;;;;;;;17.01;100.00;99834.72;5053698;28;20120;-91
2023/09/10 05:01:10;;;;;;;26.98;23.20;;;;;;;16.98;100.00;99827.03;5053247;28;20025;-91
2023/09/10 05:03:37;;;;;;;24.73;21.58;;;;;;;17.09;100.00;99843.75;5053530;28;20035;-91
2023/09/10 05:06:05;;;;;;;23.00;20.60;;;;;;;17.13;100.00;99836.50;5053806;28;20480;-91
2023/09/10 05:08:31;;;;;;;21.80;19.50;;;;;;;17.20;100.00;99835.97;5053241;28;20479;-90
2023/09/10 05:10:57;;;;;;;21.35;19.08;;;;;;;17.12;100.00;99798.81;5053342;28;20033;-91
2023/09/10 05:13:23;;;;;;;21.33;19.08;;;;;;;17.37;100.00;99818.94;5053237;28;20090;-91
2023/09/10 05:15:49;;;;;;;22.08;19.67;;;;;;;17.59;100.00;99828.75;5053262;28;20033;-92
2023/09/10 05:18:16;;;;;;;21.50;18.80;;;;;;;17.61;100.00;99811.06;5052882;28;20039;-91
2023/09/10 05:20:42;;;;;;;22.45;19.95;;;;;;;17.95;100.00;99845.50;5053108;28;20029;-91
2023/09/10 05:23:08;;;;;;;22.38;18.67;;;;;;;18.12;100.00;99845.09;5053388;28;20033;-91
2023/09/10 05:25:37;;;;;;;21.65;19.17;;;;;;;18.27;100.00;99848.34;5053054;28;20033;-92
2023/09/10 05:28:06;;;;;;;22.65;18.58;;;;;;;18.41;100.00;99842.03;5053459;28;20036;-93
2023/09/10 05:30:54;;;;;;;23.63;19.58;;;;;;;18.56;100.00;99850.59;5052833;28;20033;-92
2023/09/10 05:34:01;;;;;;;20.10;18.10;;;;;;;18.75;100.00;99850.03;4995882;28;20444;-92
2023/09/10 05:36:28;;;;;;;21.95;18.95;;;;;;;18.93;100.00;99845.97;4975631;28;20045;-91
2023/09/10 05:38:54;;;;;;;20.65;18.38;;;;;;;19.16;100.00;99838.88;4976429;28;20458;-91
2023/09/10 05:41:21;;;;;;;19.85;17.77;;;;;;;19.40;100.00;99842.19;4975906;28;20105;-92
2023/09/10 05:43:47;;;;;;;21.15;19.05;;;;;;;19.60;100.00;99839.78;4976062;28;20525;-91
2023/09/10 05:46:14;;;;;;;20.38;17.98;;;;;;;19.79;100.00;99839.97;4976011;28;20042;-91
2023/09/10 05:48:40;;;;;;;21.23;18.48;;;;;;;19.92;100.00;99840.63;4975627;28;20043;-92
2023/09/10 05:51:07;;;;;;;18.33;16.42;;;;;;;20.00;100.00;99826.78;4976004;28;20034;-91
2023/09/10 05:53:33;;;;;;;18.52;16.60;;;;;;;20.33;100.00;99839.00;4975540;28;20502;-91
2023/09/10 05:56:03;;;;;;;19.20;16.85;;;;;;;20.56;100.00;99842.38;4975461;28;20046;-92
2023/09/10 05:58:30;;;;;;;20.55;16.75;;;;;;;20.75;100.00;99846.94;4975696;28;20073;-92
2023/09/10 06:00:57;;;;;;;18.05;16.25;;;;;;;20.98;100.00;99852.03;4975843;28;20133;-91
2023/09/10 06:03:24;;;;;;;18.25;15.70;;;;;;;21.10;100.00;99853.63;4977850;28;20200;-92
2023/09/10 06:05:51;;;;;;;18.35;15.90;;;;;;;21.18;100.00;99862.56;4995351;28;20070;-92
2023/09/10 06:08:18;;;;;;;17.20;15.40;;;;;;;21.12;100.00;99833.16;4975782;28;20045;-92
2023/09/10 06:10:44;;;;;;;18.42;15.07;;;;;;;21.49;99.71;99859.06;4991958;28;20138;-92
2023/09/10 06:13:11;;;;;;;18.40;15.05;;;;;;;21.68;98.66;99859.94;4980864;28;20413;-91
2023/09/10 06:15:39;;;;;;;16.83;15.10;;;;;;;21.77;97.67;99846.84;5012383;28;20083;-92
2023/09/10 06:18:06;;;;;;;16.85;15.15;;;;;;;21.97;96.70;99864.44;5012347;28;20436;-92
2023/09/10 06:20:33;;;;;;;17.02;15.23;;;;;;;22.15;96.28;99861.94;5012138;28;20034;-92
2023/09/10 06:23:00;;;;;;;16.77;13.88;;;;;;;22.28;96.76;99843.91;5012703;28;20033;-92
2023/09/10 06:25:27;;;;;;;17.92;13.38;;;;;;;22.65;95.27;99859.09;5012368;28;20389;-92
2023/09/10 06:27:53;;;;;;;14.43;13.05;;;;;;;22.80;93.39;99854.16;5012434;28;20033;-92
2023/09/10 06:30:19;;;;;;;14.55;13.05;;;;;;;22.84;92.67;99856.38;5012023;28;20496;-92
2023/09/10 06:32:49;;;;;;;16.42;13.45;;;;;;;23.16;92.96;99857.81;5012206;28;20022;-91
2023/09/10 06:35:15;;;;;;;14.75;13.25;;;;;;;23.19;90.91;99812.34;5012151;28;20396;-92
2023/09/10 06:37:42;;;;;;;15.65;13.05;;;;;;;23.65;90.20;99853.09;5012100;28;20026;-92
2023/09/10 06:40:09;;;;;;;13.57;11.55;;;;;;;23.98;89.57;99853.41;5012046;28;20131;-91
2023/09/10 06:42:36;;;;;;;13.88;12.48;;;;;;;24.15;88.04;99850.75;5012062;28;20392;-92
2023/09/10 06:45:02;;;;;;;13.90;12.43;;;;;;;24.41;87.39;99852.63;5011933;28;20029;-92
2023/09/10 06:47:29;;;;;;;15.27;11.95;;;;;;;24.49;85.55;99841.19;5011709;28;20041;-91
2023/09/10 06:49:55;;;;;;;13.10;11.77;;;;;;;24.67;84.79;99857.97;5011840;28;20073;-92
2023/09/10 06:52:22;;;;;;;12.82;11.52;;;;;;;24.77;84.84;99858.66;5011491;28;20054;-92
2023/09/10 06:54:48;;;;;;;12.32;11.02;;;;;;;25.05;85.94;99858.50;5011780;28;20158;-92
2023/09/10 06:57:14;;;;;;;13.02;11.75;;;;;;;25.45;85.11;99859.66;5046720;28;20059;-92
2023/09/10 06:59:40;;;;;;;11.80;10.70;;;;;;;25.73;82.39;99857.56;5051287;28;20036;-92
2023/09/10 07:02:07;;;;;;;11.07;9.90;;;;;;;26.09;81.89;99867.00;5051045;28;20032;-91
2023/09/10 07:04:33;;;;;;;13.35;11.20;;;;;;;26.41;80.42;99865.31;5050774;28;20031;-91
2023/09/10 07:06:59;;;;;;;12.02;10.82;;;;;;;26.76;79.44;99863.31;5051444;28;20123;-92
2023/09/10 07:09:26;;;;;;;10.75;9.68;;;;;;;27.05;77.56;99868.91;5050795;28;20043;-92
2023/09/10 07:11:53;;;;;;;10.73;9.63;;;;;;;27.36;76.38;99873.47;5010299;28;20069;-92
2023/09/10 07:14:21;;;;;;;10.57;9.43;;;;;;;27.51;75.99;99842.28;4993683;28;20136;-93
2023/09/10 07:16:47;;;;;;;12.10;9.48;;;;;;;27.98;74.41;99876.16;4993784;28;20044;-92
2023/09/10 07:19:14;;;;;;;10.70;9.60;;;;;;;28.29;73.80;99880.59;4993760;28;20126;-93
2023/09/10 07:21:40;;;;;;;11.18;10.07;;;;;;;28.55;72.69;99874.84;4993505;28;20535;-92
2023/09/10 07:24:06;;;;;;;10.57;9.48;;;;;;;28.91;71.32;99868.78;4993765;28;20429;-92
2023/09/10 07:26:38;;;;;;;11.68;10.50;;;;;;;29.53;70.16;99879.09;5000104;28;20041;-92
2023/09/10 07:29:05;;;;;;;12.43;11.05;;;;;;;30.09;67.45;99836.34;5010068;28;20124;-92
2023/09/10 07:31:50;;;;;;;11.43;10.32;;;;;;;31.38;65.87;99885.22;4971018;28;20038;-92
2023/09/10 07:34:18;;;;;;;11.10;10.00;;;;;;;32.18;64.14;99880.06;4971249;28;20043;-92
2023/09/10 07:36:44;;;;;;;10.63;9.60;;;;;;;32.90;62.74;99879.19;4971059;28;20398;-92
2023/09/10 07:39:09;;;;;;;11.43;10.32;;;;;;;33.54;61.60;99880.25;4971673;28;20061;-91
2023/09/10 07:41:35;;;;;;;11.55;10.00;;;;;;;33.87;59.73;99871.97;4971267;28;20098;-92
2023/09/10 07:44:05;;;;;;;11.55;10.45;;;;;;;34.12;59.13;99876.59;4971902;28;20123;-91
2023/09/10 07:46:32;;;;;;;11.27;10.23;;;;;;;34.18;59.37;99854.94;4956211;28;20039;-92
2023/09/10 07:48:57;;;;;;;11.00;10.00;;;;;;;33.94;58.80;99858.41;4982986;28;20080;-88
2023/09/10 07:51:23;;;;;;;12.07;10.93;;;;;;;33.18;59.45;99832.22;5028223;28;20532;-89
2023/09/10 07:53:48;;;;;;;11.27;10.18;;;;;;;32.38;60.91;99840.50;5029248;28;20408;-89
2023/09/10 07:56:13;;;;;;;10.73;9.65;;;;;;;31.65;63.08;99851.16;5012205;28;20088;-89
2023/09/10 07:58:39;;;;;;;10.48;9.48;;;;;;;30.99;64.33;99858.94;5028451;28;20037;-88
2023/09/10 08:01:04;;;;;;;11.60;10.52;;;;;;;30.44;64.39;99863.31;5029141;28;20041;-89
2023/09/10 08:03:29;;;;;;;12.02;10.82;;;;;;;29.87;66.07;99840.88;5040615;28;20037;-88
2023/09/10 08:05:55;;;;;;;10.65;9.68;;;;;;;29.52;67.25;99834.50;5070125;28;20024;-88
2023/09/10 08:08:20;;;;;;;12.98;9.95;;;;;;;29.23;67.04;99840.78;5069990;28;20024;-88
2023/09/10 08:10:46;;;;;;;10.85;9.75;;;;;;;28.93;68.42;99838.09;5069836;28;20434;-88
2023/09/10 08:13:12;;;;;;;10.68;9.60;;;;;;;28.63;69.47;99807.78;5071357;28;20024;-89
2023/09/10 08:15:39;;;;;;;10.60;9.60;;;;;;;28.63;69.29;99831.91;5069896;28;20119;-88
2023/09/10 08:18:10;;;;;;;11.50;10.30;;;;;;;28.49;71.06;99827.38;5074235;28;20028;-88
2023/09/10 08:20:36;;;;;;;10.77;9.32;;;;;;;28.24;70.11;99806.13;5073667;28;20120;-88
2023/09/10 08:23:01;;;;;;;10.50;9.52;;;;;;;28.34;70.90;99838.84;5075209;28;20119;-88
2023/09/10 08:25:26;;;;;;;11.00;9.90;;;;;;;28.24;70.08;99843.63;5073716;28;20028;-86
2023/09/10 08:27:52;;;;;;;10.52;9.45;;;;;;;28.01;70.48;99827.59;5073746;28;20028;-88
2023/09/10 08:30:17;;;;;;;9.50;8.55;;;;;;;27.78;71.33;99805.38;5073428;28;20090;-86
2023/09/10 08:32:45;;;;;;;10.80;9.65;;;;;;;27.93;70.42;99838.34;5073844;28;20074;-87
2023/09/10 08:35:12;;;;;;;10.05;8.98;;;;;;;27.52;70.90;99819.06;5075422;28;20379;-87
2023/09/10 08:37:37;;;;;;;9.98;8.98;;;;;;;27.50;71.60;99842.47;5075084;28;20052;-87
2023/09/10 08:40:03;;;;;;;9.45;8.60;;;;;;;27.31;72.09;99817.00;5074257;28;20067;-89
2023/09/10 08:43:05;;;;;;;8.90;8.00;;;;;;;27.47;72.46;99854.34;5073586;28;20115;-89
2023/09/10 08:45:31;;;;;;;9.48;8.68;;;;;;;27.24;72.97;99816.03;5074298;28;20063;-87
2023/09/10 08:48:00;;;;;;;12.82;9.85;;;;;;;27.15;72.50;99809.06;5073845;28;20044;-87
2023/09/10 08:50:25;;;;;;;10.38;9.38;;;;;;;27.13;72.86;99816.41;5074732;28;20032;-89
2023/09/10 08:52:53;;;;;;;10.10;9.02;;;;;;;27.05;72.92;99814.56;5073790;28;20051;-88
2023/09/10 08:55:18;;;;;;;11.27;10.10;;;;;;;27.18;73.69;99844.31;5074796;28;20104;-90
2023/09/10 08:57:45;;;;;;;11.30;10.05;;;;;;;27.00;72.79;99824.97;5072646;28;20116;-88
2023/09/10 09:00:12;;;;;;;10.30;9.30;;;;;;;26.99;72.72;99850.84;5072032;28;20032;-89
2023/09/10 09:02:45;;;;;;;11.07;9.93;;;;;;;26.70;73.14;99840.75;5072445;28;20028;-91
2023/09/10 09:05:11;;;;;;;9.55;8.55;;;;;;;26.71;74.84;99852.28;5072262;28;20036;-89
2023/09/10 09:07:46;;;;;;;8.85;8.02;;;;;;;26.70;75.93;99843.44;5071467;28;20029;-88
2023/09/10 09:10:17;;;;;;;10.30;9.25;;;;;;;26.73;76.03;99844.94;5070228;28;20024;-89
2023/09/10 09:12:44;;;;;;;10.05;8.85;;;;;;;26.75;76.21;99854.44;5072189;28;20067;-87
2023/09/10 09:15:11;;;;;;;11.07;9.48;;;;;;;26.75;77.01;99850.94;5072245;28;20024;-87
2023/09/10 09:17:41;;;;;;;9.60;8.63;;;;;;;26.83;77.78;99850.91;5072310;28;20051;-87
2023/09/10 09:20:11;;;;;;;11.45;9.63;;;;;;;26.84;76.97;99849.91;5073474;28;20051;-87
2023/09/10 09:22:40;;;;;;;10.73;9.63;;;;;;;26.88;77.49;99853.88;5072089;28;20044;-87
2023/09/10 09:25:07;;;;;;;11.02;9.90;;;;;;;26.77;76.07;99843.59;5073105;28;20384;-88
2023/09/10 09:27:34;;;;;;;11.07;9.82;;;;;;;26.72;77.30;99838.75;5071965;28;20460;-89
2023/09/10 09:30:20;;;;;;;12.05;9.57;;;;;;;26.77;79.36;99848.94;5051469;28;20464;-90
2023/09/10 09:32:48;;;;;;;9.77;8.80;;;;;;;26.78;77.72;99845.25;4975442;28;20137;-87
2023/09/10 09:35:14;;;;;;;10.35;9.35;;;;;;;26.85;78.22;99849.75;4992126;28;20165;-89
2023/09/10 09:37:39;;;;;;;10.07;9.18;;;;;;;26.88;77.43;99848.53;4959622;28;20034;-87
2023/09/10 09:40:09;;;;;;;9.77;8.88;;;;;;;26.77;75.16;99822.22;4975828;28;20083;-87
2023/09/10 09:42:36;;;;;;;9.38;8.30;;;;;;;26.78;75.50;99823.88;4991643;28;20065;-87
2023/09/10 09:45:02;;;;;;;10.50;9.02;;;;;;;26.79;76.43;99821.00;4992122;28;20042;-87
2023/09/10 09:47:27;;;;;;;9.27;8.30;;;;;;;26.70;74.91;99790.00;4975624;28;20030;-87
2023/09/10 09:49:56;;;;;;;8.35;7.57;;;;;;;26.96;73.86;99824.47;4975698;28;20112;-88
2023/09/10 09:52:21;;;;;;;8.52;7.57;;;;;;;27.06;74.65;99835.81;4992002;28;20077;-87
2023/09/10 09:54:47;;;;;;;8.57;7.45;;;;;;;26.80;73.57;99779.94;4975142;28;20058;-86
2023/09/10 09:57:13;;;;;;;8.45;7.55;;;;;;;27.13;72.78;99835.13;4991445;28;20055;-86
2023/09/10 09:59:38;;;;;;;9.18;8.23;;;;;;;27.06;72.57;99817.09;4991597;28;20041;-86
2023/09/10 10:02:04;;;;;;;10.00;7.97;;;;;;;27.01;72.61;99806.09;5029031;28;20090;-86
2023/09/10 10:04:33;;;;;;;9.20;8.30;;;;;;;27.20;72.94;99828.09;5014243;28;20074;-85
2023/09/10 10:07:01;;;;;;;8.55;7.72;;;;;;;27.07;73.32;99792.00;5030994;28;20121;-86
2023/09/10 10:09:36;;;;;;;9.32;8.43;;;;;;;27.04;71.25;99787.00;5031027;28;20179;-86
2023/09/10 10:12:03;;;;;;;16.23;8.02;;;;;;;26.96;70.86;99784.38;5030961;28;20048;-86
2023/09/10 10:14:33;;;;;;;8.68;7.88;;;;;;;26.95;71.84;99785.38;5013973;28;20484;-86
2023/09/10 10:17:03;;;;;;;8.90;8.00;;;;;;;27.14;71.96;99815.41;5014092;28;20124;-87
2023/09/10 10:19:33;;;;;;;9.00;7.87;;;;;;;27.19;72.51;99808.53;5030523;28;20038;-87
2023/09/10 10:22:00;;;;;;;9.85;8.55;;;;;;;26.93;70.97;99768.69;5015984;28;20037;-88
2023/09/10 10:24:26;;;;;;;8.60;7.80;;;;;;;27.08;71.28;99780.31;5071553;28;20472;-88
2023/09/10 10:26:53;;;;;;;9.07;8.27;;;;;;;27.27;72.23;99813.00;5072704;28;20039;-87
2023/09/10 10:29:20;;;;;;;10.15;8.38;;;;;;;27.17;72.31;99799.00;5071680;28;20032;-88
2023/09/10 10:31:48;;;;;;;9.30;8.25;;;;;;;26.94;71.26;99764.19;5071329;28;20028;-86
2023/09/10 10:34:23;;;;;;;8.85;8.07;;;;;;;27.27;72.18;99805.81;5071588;28;20025;-87
2023/09/10 10:36:57;;;;;;;8.13;7.32;;;;;;;27.30;72.02;99804.63;5071118;28;20040;-87
2023/09/10 10:39:32;;;;;;;7.70;6.90;;;;;;;27.23;70.51;99783.13;5071071;28;20032;-87
2023/09/10 10:42:00;;;;;;;7.35;6.65;;;;;;;27.28;68.93;99794.13;5072873;28;20604;-87
2023/09/10 10:44:36;;;;;;;7.05;6.35;;;;;;;27.29;69.03;99784.25;5065577;28;20509;-87
2023/09/10 10:47:17;;;;;;;7.68;5.78;;;;;;;27.34;68.65;99787.22;5051175;28;20031;-86
2023/09/10 10:49:51;;;;;;;6.30;5.70;;;;;;;27.04;67.87;99730.88;5052506;28;20024;-86
2023/09/10 10:52:22;;;;;;;9.50;6.40;;;;;;;27.39;67.54;99784.88;5052592;28;20491;-87
2023/09/10 10:54:51;;;;;;;7.32;6.57;;;;;;;26.97;67.00;99715.69;5052122;28;20031;-87
2023/09/10 10:57:17;;;;;;;7.35;6.65;;;;;;;27.39;67.87;99776.84;5050824;28;20115;-87
2023/09/10 10:59:43;;;;;;;7.32;6.63;;;;;;;27.36;67.29;99774.50;5052159;28;20032;-85
2023/09/10 11:02:21;;;;;;;6.97;6.30;;;;;;;27.40;67.51;99775.81;5051306;28;20436;-86
2023/09/10 11:05:06;;;;;;;7.45;6.70;;;;;;;27.32;64.46;99759.81;5051956;28;20032;-86
2023/09/10 11:07:32;;;;;;;7.28;6.55;;;;;;;27.23;64.42;99755.53;5043603;28;20045;-87
2023/09/10 11:10:28;;;;;;;7.57;6.88;;;;;;;27.41;63.40;99777.47;5049849;28;20044;-86
2023/09/10 11:13:08;;;;;;;7.15;6.45;;;;;;;27.39;63.27;99782.19;5028394;28;20528;-86
2023/09/10 11:15:33;;;;;;;9.57;7.00;;;;;;;27.35;63.92;99772.84;5029224;28;20040;-88
2023/09/10 11:18:37;;;;;;;6.93;6.32;;;;;;;27.40;65.06;99783.03;5012893;28;20041;-87
2023/09/10 11:21:07;;;;;;;6.63;5.93;;;;;;;27.41;65.84;99784.69;5029518;28;20048;-89
2023/09/10 11:23:37;;;;;;;6.40;5.80;;;;;;;27.32;65.64;99771.34;5013024;28;20049;-88
2023/09/10 11:26:14;;;;;;;6.82;6.18;;;;;;;27.48;66.47;99786.47;5015616;28;20036;-88
2023/09/10 11:28:42;;;;;;;6.38;5.88;;;;;;;27.50;66.17;99791.63;5031964;28;20067;-88
2023/09/10 11:31:38;;;;;;;6.45;5.85;;;;;;;27.53;65.32;99789.44;5048888;28;20037;-88
2023/09/10 11:34:28;;;;;;;6.38;5.78;;;;;;;27.59;65.71;99793.25;5032782;28;20094;-88
2023/09/10 11:36:55;;;;;;;6.13;5.53;;;;;;;27.38;64.19;99753.75;5048880;28;20029;-88
2023/09/10 11:39:22;;;;;;;6.50;5.90;;;;;;;27.50;63.54;99775.59;5065548;28;20040;-88
2023/09/10 11:41:54;;;;;;;7.13;6.43;;;;;;;27.52;64.36;99771.75;5071366;28;20437;-88
2023/09/10 11:44:20;;;;;;;6.40;5.80;;;;;;;27.47;63.04;99763.38;5071963;28;20050;-88
2023/09/10 11:46:45;;;;;;;7.10;6.40;;;;;;;27.40;61.68;99748.25;5070292;28;20150;-88
2023/09/10 11:49:11;;;;;;;7.38;6.68;;;;;;;27.51;62.23;99770.03;5071968;28;20039;-88
2023/09/10 11:51:41;;;;;;;7.60;5.55;;;;;;;27.49;62.43;99760.56;5070287;28;20028;-87
2023/09/10 11:54:07;;;;;;;6.57;5.97;;;;;;;27.53;62.36;99769.88;5070630;28;20039;-86
2023/09/10 11:56:35;;;;;;;6.95;6.07;;;;;;;27.52;62.72;99760.22;5071778;28;20060;-87
2023/09/10 11:59:01;;;;;;;6.70;5.93;;;;;;;27.46;62.37;99748.34;5071875;28;20082;-87